sensor_id;sensor_type;location;lat;lon;timestamp;temperature;humidity
22299;DHT22;11317;51.072;17.036;2023-02-28T00:01:17;1.30;99.90
22299;DHT22;11317;51.072;17.036;2023-02-28T00:06:10;1.20;1.00
22299;DHT22;11317;51.072;17.036;2023-02-28T00:08:36;1.30;99.90
22299;DHT22;11317;51.072;17.036;2023-02-28T00:11:05;1.30;99.90
22299;DHT22;11317;51.072;17.036;2023-02-28T00:13:32;1.50;99.90
22299;DHT22;11317;51.072;17.036;2023-02-28T00:16:01;1.40;1.00
22299;DHT22;11317;51.072;17.036;2023-02-28T00:18:27;1.10;1.00
22299;DHT22;11317;51.072;17.036;2023-02-28T00:45:17;1.60;99.90
22299;DHT22;11317;51.072;17.036;2023-02-28T00:50:09;1.30;99.90
22299;DHT22;11317;51.072;17.036;2023-02-28T00:52:35;1.20;1.00
22299;DHT22;11317;51.072;17.036;2023-02-28T00:55:01;1.20;1.00
22299;DHT22;11317;51.072;17.036;2023-02-28T01:02:23;1.20;99.90
22299;DHT22;11317;51.072;17.036;2023-02-28T01:07:15;1.00;1.00
22299;DHT22;11317;51.072;17.036;2023-02-28T01:09:41;1.10;99.90
22299;DHT22;11317;51.072;17.036;2023-02-28T01:12:08;1.00;99.90
22299;DHT22;11317;51.072;17.036;2023-02-28T01:14:34;1.10;99.90
22299;DHT22;11317;51.072;17.036;2023-02-28T01:17:01;1.20;1.00
22299;DHT22;11317;51.072;17.036;2023-02-28T01:19:27;1.10;97.70
22299;DHT22;11317;51.072;17.036;2023-02-28T01:21:53;0.70;99.90
22299;DHT22;11317;51.072;17.036;2023-02-28T01:24:22;1.20;99.90
22299;DHT22;11317;51.072;17.036;2023-02-28T01:26:48;1.00;99.90
22299;DHT22;11317;51.072;17.036;2023-02-28T01:29:15;0.80;99.90
22299;DHT22;11317;51.072;17.036;2023-02-28T01:31:41;1.50;1.00
22299;DHT22;11317;51.072;17.036;2023-02-28T01:38:59;0.90;1.00
22299;DHT22;11317;51.072;17.036;2023-02-28T01:41:27;1.00;99.90
22299;DHT22;11317;51.072;17.036;2023-02-28T01:43:57;1.20;1.00
22299;DHT22;11317;51.072;17.036;2023-02-28T01:49:11;0.90;1.00
22299;DHT22;11317;51.072;17.036;2023-02-28T01:51:45;0.80;1.00
22299;DHT22;11317;51.072;17.036;2023-02-28T01:54:20;0.80;1.00
22299;DHT22;11317;51.072;17.036;2023-02-28T01:56:54;0.80;1.00
22299;DHT22;11317;51.072;17.036;2023-02-28T01:59:28;0.60;1.00
22299;DHT22;11317;51.072;17.036;2023-02-28T02:04:23;0.80;1.00
22299;DHT22;11317;51.072;17.036;2023-02-28T02:06:52;0.90;99.90
22299;DHT22;11317;51.072;17.036;2023-02-28T02:09:18;0.80;1.00
22299;DHT22;11317;51.072;17.036;2023-02-28T02:11:45;0.80;1.00
22299;DHT22;11317;51.072;17.036;2023-02-28T02:14:32;0.70;1.00
22299;DHT22;11317;51.072;17.036;2023-02-28T02:20:04;0.80;1.00
22299;DHT22;11317;51.072;17.036;2023-02-28T02:26:31;0.70;1.00
22299;DHT22;11317;51.072;17.036;2023-02-28T02:31:58;0.80;1.00
22299;DHT22;11317;51.072;17.036;2023-02-28T02:34:39;0.80;99.90
22299;DHT22;11317;51.072;17.036;2023-02-28T02:37:15;0.70;99.90
22299;DHT22;11317;51.072;17.036;2023-02-28T02:43:16;0.70;99.90
22299;DHT22;11317;51.072;17.036;2023-02-28T02:47:41;0.80;1.00
22299;DHT22;11317;51.072;17.036;2023-02-28T02:50:14;0.20;1.00
22299;DHT22;11317;51.072;17.036;2023-02-28T02:52:48;0.70;1.00
22299;DHT22;11317;51.072;17.036;2023-02-28T02:55:17;1.70;1.00
22299;DHT22;11317;51.072;17.036;2023-02-28T02:57:56;0.70;1.00
22299;DHT22;11317;51.072;17.036;2023-02-28T03:00:32;0.60;1.00
22299;DHT22;11317;51.072;17.036;2023-02-28T03:03:01;0.60;1.00
22299;DHT22;11317;51.072;17.036;2023-02-28T03:05:35;0.80;1.00
22299;DHT22;11317;51.072;17.036;2023-02-28T03:08:04;0.70;99.90
22299;DHT22;11317;51.072;17.036;2023-02-28T03:13:15;0.70;99.90
22299;DHT22;11317;51.072;17.036;2023-02-28T03:15:55;0.70;99.90
22299;DHT22;11317;51.072;17.036;2023-02-28T03:18:36;0.60;1.00
22299;DHT22;11317;51.072;17.036;2023-02-28T03:23:57;0.60;99.90
22299;DHT22;11317;51.072;17.036;2023-02-28T03:26:27;0.60;99.90
22299;DHT22;11317;51.072;17.036;2023-02-28T03:34:07;0.50;99.90
22299;DHT22;11317;51.072;17.036;2023-02-28T03:36:37;0.60;1.00
22299;DHT22;11317;51.072;17.036;2023-02-28T03:39:21;0.50;99.90
22299;DHT22;11317;51.072;17.036;2023-02-28T03:41:59;0.80;1.00
22299;DHT22;11317;51.072;17.036;2023-02-28T03:44:34;0.60;99.90
22299;DHT22;11317;51.072;17.036;2023-02-28T03:47:37;0.70;99.90
22299;DHT22;11317;51.072;17.036;2023-02-28T03:52:23;0.70;1.00
22299;DHT22;11317;51.072;17.036;2023-02-28T03:54:57;2.00;93.30
22299;DHT22;11317;51.072;17.036;2023-02-28T03:57:39;0.60;99.90
22299;DHT22;11317;51.072;17.036;2023-02-28T04:02:35;0.40;99.90
22299;DHT22;11317;51.072;17.036;2023-02-28T04:05:01;0.60;1.00
22299;DHT22;11317;51.072;17.036;2023-02-28T04:07:30;0.60;1.00
22299;DHT22;11317;51.072;17.036;2023-02-28T04:09:57;0.70;1.00
22299;DHT22;11317;51.072;17.036;2023-02-28T04:12:23;0.50;99.90
22299;DHT22;11317;51.072;17.036;2023-02-28T04:14:50;0.60;1.00
22299;DHT22;11317;51.072;17.036;2023-02-28T04:19:43;0.60;1.00
22299;DHT22;11317;51.072;17.036;2023-02-28T04:22:09;1.80;1.00
22299;DHT22;11317;51.072;17.036;2023-02-28T04:24:36;0.60;1.00
22299;DHT22;11317;51.072;17.036;2023-02-28T04:27:02;0.10;99.90
22299;DHT22;11317;51.072;17.036;2023-02-28T04:29:30;0.60;1.00
22299;DHT22;11317;51.072;17.036;2023-02-28T04:34:25;0.20;99.90
22299;DHT22;11317;51.072;17.036;2023-02-28T04:36:51;0.50;1.00
22299;DHT22;11317;51.072;17.036;2023-02-28T04:39:24;0.50;1.00
22299;DHT22;11317;51.072;17.036;2023-02-28T04:41:50;0.70;1.00
22299;DHT22;11317;51.072;17.036;2023-02-28T04:44:16;0.70;1.00
22299;DHT22;11317;51.072;17.036;2023-02-28T04:46:43;1.50;66.00
22299;DHT22;11317;51.072;17.036;2023-02-28T04:49:12;0.50;1.00
22299;DHT22;11317;51.072;17.036;2023-02-28T04:58:57;0.40;99.90
22299;DHT22;11317;51.072;17.036;2023-02-28T05:03:49;1.10;1.00
22299;DHT22;11317;51.072;17.036;2023-02-28T05:06:16;0.60;99.90
22299;DHT22;11317;51.072;17.036;2023-02-28T05:11:22;0.60;1.00
22299;DHT22;11317;51.072;17.036;2023-02-28T05:13:49;0.50;1.00
22299;DHT22;11317;51.072;17.036;2023-02-28T05:16:16;0.50;1.00
22299;DHT22;11317;51.072;17.036;2023-02-28T05:18:42;0.70;99.90
22299;DHT22;11317;51.072;17.036;2023-02-28T05:21:27;0.00;1.00
22299;DHT22;11317;51.072;17.036;2023-02-28T05:23:55;0.40;99.90
22299;DHT22;11317;51.072;17.036;2023-02-28T05:31:14;0.50;1.00
22299;DHT22;11317;51.072;17.036;2023-02-28T05:33:40;0.40;1.00
22299;DHT22;11317;51.072;17.036;2023-02-28T05:36:07;0.40;1.00
22299;DHT22;11317;51.072;17.036;2023-02-28T05:38:33;0.30;99.90
22299;DHT22;11317;51.072;17.036;2023-02-28T05:43:25;0.40;99.90
22299;DHT22;11317;51.072;17.036;2023-02-28T05:50:43;0.50;1.00
22299;DHT22;11317;51.072;17.036;2023-02-28T05:53:11;0.70;99.90
22299;DHT22;11317;51.072;17.036;2023-02-28T05:55:37;0.80;1.00
22299;DHT22;11317;51.072;17.036;2023-02-28T05:58:03;0.60;91.50
22299;DHT22;11317;51.072;17.036;2023-02-28T06:05:23;0.60;1.00
22299;DHT22;11317;51.072;17.036;2023-02-28T06:10:17;0.80;1.00
22299;DHT22;11317;51.072;17.036;2023-02-28T06:15:14;0.70;1.00
22299;DHT22;11317;51.072;17.036;2023-02-28T06:17:41;0.80;1.00
22299;DHT22;11317;51.072;17.036;2023-02-28T06:20:08;0.90;99.90
22299;DHT22;11317;51.072;17.036;2023-02-28T06:22:35;0.80;1.00
22299;DHT22;11317;51.072;17.036;2023-02-28T06:25:02;1.00;1.00
22299;DHT22;11317;51.072;17.036;2023-02-28T06:32:21;1.10;1.00
22299;DHT22;11317;51.072;17.036;2023-02-28T06:37:14;0.90;99.90
22299;DHT22;11317;51.072;17.036;2023-02-28T06:39:40;0.80;99.90
22299;DHT22;11317;51.072;17.036;2023-02-28T06:44:32;1.40;1.00
22299;DHT22;11317;51.072;17.036;2023-02-28T06:47:05;1.70;1.00
22299;DHT22;11317;51.072;17.036;2023-02-28T06:49:33;1.70;1.00
22299;DHT22;11317;51.072;17.036;2023-02-28T06:59:21;1.90;1.00
22299;DHT22;11317;51.072;17.036;2023-02-28T07:04:13;2.30;1.00
22299;DHT22;11317;51.072;17.036;2023-02-28T07:11:31;2.70;1.00
22299;DHT22;11317;51.072;17.036;2023-02-28T07:13:57;2.70;1.00
22299;DHT22;11317;51.072;17.036;2023-02-28T07:16:24;2.80;1.00
22299;DHT22;11317;51.072;17.036;2023-02-28T07:18:53;3.00;1.00
22299;DHT22;11317;51.072;17.036;2023-02-28T07:26:15;3.70;95.60
22299;DHT22;11317;51.072;17.036;2023-02-28T07:28:45;4.10;99.90
22299;DHT22;11317;51.072;17.036;2023-02-28T07:31:12;4.20;1.00
22299;DHT22;11317;51.072;17.036;2023-02-28T07:33:40;5.20;1.00
22299;DHT22;11317;51.072;17.036;2023-02-28T07:36:10;5.90;99.90
22299;DHT22;11317;51.072;17.036;2023-02-28T07:46:08;13.00;1.00
22299;DHT22;11317;51.072;17.036;2023-02-28T07:51:00;14.90;1.00
22299;DHT22;11317;51.072;17.036;2023-02-28T07:55:59;16.70;99.90
22299;DHT22;11317;51.072;17.036;2023-02-28T07:58:27;16.70;1.00
22299;DHT22;11317;51.072;17.036;2023-02-28T08:00:53;19.10;1.00
22299;DHT22;11317;51.072;17.036;2023-02-28T08:03:20;16.80;1.00
22299;DHT22;11317;51.072;17.036;2023-02-28T08:05:47;17.20;1.00
22299;DHT22;11317;51.072;17.036;2023-02-28T08:10:40;18.60;1.00
22299;DHT22;11317;51.072;17.036;2023-02-28T08:13:06;17.80;1.00
22299;DHT22;11317;51.072;17.036;2023-02-28T08:20:24;19.00;99.90
22299;DHT22;11317;51.072;17.036;2023-02-28T08:30:13;19.70;1.00
22299;DHT22;11317;51.072;17.036;2023-02-28T08:32:40;20.00;1.00
22299;DHT22;11317;51.072;17.036;2023-02-28T08:35:07;20.20;1.00
22299;DHT22;11317;51.072;17.036;2023-02-28T08:47:19;20.20;1.00
22299;DHT22;11317;51.072;17.036;2023-02-28T08:52:11;19.80;1.00
22299;DHT22;11317;51.072;17.036;2023-02-28T08:54:37;20.10;1.00
22299;DHT22;11317;51.072;17.036;2023-02-28T08:57:03;19.90;1.00
22299;DHT22;11317;51.072;17.036;2023-02-28T08:59:30;20.50;1.00
22299;DHT22;11317;51.072;17.036;2023-02-28T09:01:56;20.60;99.90
22299;DHT22;11317;51.072;17.036;2023-02-28T09:04:22;20.10;1.00
22299;DHT22;11317;51.072;17.036;2023-02-28T09:06:47;21.70;1.00
22299;DHT22;11317;51.072;17.036;2023-02-28T09:09:15;20.70;1.00
22299;DHT22;11317;51.072;17.036;2023-02-28T09:11:40;20.60;99.90
22299;DHT22;11317;51.072;17.036;2023-02-28T09:16:33;20.90;1.00
22299;DHT22;11317;51.072;17.036;2023-02-28T09:19:00;21.30;1.00
22299;DHT22;11317;51.072;17.036;2023-02-28T09:21:26;21.70;1.00
22299;DHT22;11317;51.072;17.036;2023-02-28T09:23:52;21.40;99.90
22299;DHT22;11317;51.072;17.036;2023-02-28T09:26:21;21.20;1.00
22299;DHT22;11317;51.072;17.036;2023-02-28T09:28:47;21.70;1.00
22299;DHT22;11317;51.072;17.036;2023-02-28T09:31:16;21.00;1.00
22299;DHT22;11317;51.072;17.036;2023-02-28T09:36:10;16.90;99.90
22299;DHT22;11317;51.072;17.036;2023-02-28T09:38:36;16.50;1.00
22299;DHT22;11317;51.072;17.036;2023-02-28T09:41:09;18.60;1.00
22299;DHT22;11317;51.072;17.036;2023-02-28T09:43:37;18.90;1.00
22299;DHT22;11317;51.072;17.036;2023-02-28T09:49:02;20.00;1.00
22299;DHT22;11317;51.072;17.036;2023-02-28T09:54:21;20.30;99.90
22299;DHT22;11317;51.072;17.036;2023-02-28T09:56:53;21.50;1.00
22299;DHT22;11317;51.072;17.036;2023-02-28T10:02:29;20.60;1.00
22299;DHT22;11317;51.072;17.036;2023-02-28T10:04:56;21.00;1.00
22299;DHT22;11317;51.072;17.036;2023-02-28T10:07:57;20.90;1.00
22299;DHT22;11317;51.072;17.036;2023-02-28T10:10:35;20.60;1.00
22299;DHT22;11317;51.072;17.036;2023-02-28T10:13:14;21.00;1.00
22299;DHT22;11317;51.072;17.036;2023-02-28T10:15:41;21.50;99.90
22299;DHT22;11317;51.072;17.036;2023-02-28T10:18:12;22.50;1.00
22299;DHT22;11317;51.072;17.036;2023-02-28T10:20:41;22.80;1.00
22299;DHT22;11317;51.072;17.036;2023-02-28T10:23:28;22.60;1.00
22299;DHT22;11317;51.072;17.036;2023-02-28T10:26:08;22.50;1.00
22299;DHT22;11317;51.072;17.036;2023-02-28T10:31:02;22.80;9.70
22299;DHT22;11317;51.072;17.036;2023-02-28T10:33:35;23.40;1.00
22299;DHT22;11317;51.072;17.036;2023-02-28T10:36:02;23.30;1.00
22299;DHT22;11317;51.072;17.036;2023-02-28T10:38:37;23.30;1.00
22299;DHT22;11317;51.072;17.036;2023-02-28T10:41:13;24.20;99.90
22299;DHT22;11317;51.072;17.036;2023-02-28T10:43:41;23.20;1.00
22299;DHT22;11317;51.072;17.036;2023-02-28T10:48:44;23.20;1.00
22299;DHT22;11317;51.072;17.036;2023-02-28T10:51:13;23.30;1.00
22299;DHT22;11317;51.072;17.036;2023-02-28T10:53:53;23.10;1.00
22299;DHT22;11317;51.072;17.036;2023-02-28T10:56:22;22.10;1.00
22299;DHT22;11317;51.072;17.036;2023-02-28T10:58:56;21.10;1.00
22299;DHT22;11317;51.072;17.036;2023-02-28T11:01:42;20.70;1.00
22299;DHT22;11317;51.072;17.036;2023-02-28T11:07:20;21.10;1.00
22299;DHT22;11317;51.072;17.036;2023-02-28T11:09:50;21.10;99.90
22299;DHT22;11317;51.072;17.036;2023-02-28T11:12:34;21.00;1.00
22299;DHT22;11317;51.072;17.036;2023-02-28T11:15:05;19.60;99.90
22299;DHT22;11317;51.072;17.036;2023-02-28T11:17:32;18.20;1.00
22299;DHT22;11317;51.072;17.036;2023-02-28T11:20:02;16.50;1.00
22299;DHT22;11317;51.072;17.036;2023-02-28T11:22:32;14.80;1.00
22299;DHT22;11317;51.072;17.036;2023-02-28T11:25:07;13.30;99.90
22299;DHT22;11317;51.072;17.036;2023-02-28T11:30:00;11.50;1.00
22299;DHT22;11317;51.072;17.036;2023-02-28T11:32:29;11.00;1.00
22299;DHT22;11317;51.072;17.036;2023-02-28T11:35:18;10.60;1.00
22299;DHT22;11317;51.072;17.036;2023-02-28T11:37:48;10.20;1.00
22299;DHT22;11317;51.072;17.036;2023-02-28T11:40:21;9.70;1.00
22299;DHT22;11317;51.072;17.036;2023-02-28T11:43:16;9.00;1.00
22299;DHT22;11317;51.072;17.036;2023-02-28T11:48:42;8.60;1.00
22299;DHT22;11317;51.072;17.036;2023-02-28T11:51:41;8.60;1.00
22299;DHT22;11317;51.072;17.036;2023-02-28T11:54:33;8.70;1.00
22299;DHT22;11317;51.072;17.036;2023-02-28T12:00:23;8.70;1.00
22299;DHT22;11317;51.072;17.036;2023-02-28T12:05:45;8.70;99.90
22299;DHT22;11317;51.072;17.036;2023-02-28T12:10:51;8.30;1.00
22299;DHT22;11317;51.072;17.036;2023-02-28T12:13:26;8.10;1.00
22299;DHT22;11317;51.072;17.036;2023-02-28T12:19:10;8.20;1.00
22299;DHT22;11317;51.072;17.036;2023-02-28T12:22:05;8.50;99.90
22299;DHT22;11317;51.072;17.036;2023-02-28T12:27:36;8.30;1.00
22299;DHT22;11317;51.072;17.036;2023-02-28T12:33:18;7.70;1.00
22299;DHT22;11317;51.072;17.036;2023-02-28T12:35:52;7.60;1.00
22299;DHT22;11317;51.072;17.036;2023-02-28T12:38:27;7.40;1.00
22299;DHT22;11317;51.072;17.036;2023-02-28T12:40:58;7.40;1.00
22299;DHT22;11317;51.072;17.036;2023-02-28T12:43:33;7.40;1.00
22299;DHT22;11317;51.072;17.036;2023-02-28T12:48:43;7.60;1.00
22299;DHT22;11317;51.072;17.036;2023-02-28T12:51:12;7.70;1.00
22299;DHT22;11317;51.072;17.036;2023-02-28T12:59:00;7.50;1.00
22299;DHT22;11317;51.072;17.036;2023-02-28T13:07:42;7.40;1.00
22299;DHT22;11317;51.072;17.036;2023-02-28T13:10:15;7.40;1.00
22299;DHT22;11317;51.072;17.036;2023-02-28T13:12:52;7.30;99.90
22299;DHT22;11317;51.072;17.036;2023-02-28T13:15:27;7.40;1.00
22299;DHT22;11317;51.072;17.036;2023-02-28T13:17:58;7.30;1.00
22299;DHT22;11317;51.072;17.036;2023-02-28T13:20:47;7.40;1.00
22299;DHT22;11317;51.072;17.036;2023-02-28T13:34:12;6.90;1.00
22299;DHT22;11317;51.072;17.036;2023-02-28T13:36:38;7.40;1.00
22299;DHT22;11317;51.072;17.036;2023-02-28T13:42:46;7.50;1.00
22299;DHT22;11317;51.072;17.036;2023-02-28T13:47:43;7.60;99.90
22299;DHT22;11317;51.072;17.036;2023-02-28T13:56:10;7.20;1.00
22299;DHT22;11317;51.072;17.036;2023-02-28T14:01:34;7.30;1.00
22299;DHT22;11317;51.072;17.036;2023-02-28T14:06:32;6.90;1.00
22299;DHT22;11317;51.072;17.036;2023-02-28T14:11:47;7.40;1.00
22299;DHT22;11317;51.072;17.036;2023-02-28T14:17:02;6.90;1.00
22299;DHT22;11317;51.072;17.036;2023-02-28T14:19:31;6.80;1.00
22299;DHT22;11317;51.072;17.036;2023-02-28T14:22:16;6.70;1.00
22299;DHT22;11317;51.072;17.036;2023-02-28T14:37:26;7.10;1.00
22299;DHT22;11317;51.072;17.036;2023-02-28T14:39:52;6.60;1.00
22299;DHT22;11317;51.072;17.036;2023-02-28T14:42:54;6.40;1.00
22299;DHT22;11317;51.072;17.036;2023-02-28T14:45:21;5.10;1.00
22299;DHT22;11317;51.072;17.036;2023-02-28T14:47:49;6.20;1.00
22299;DHT22;11317;51.072;17.036;2023-02-28T14:50:32;6.20;1.00
22299;DHT22;11317;51.072;17.036;2023-02-28T14:53:00;6.00;1.00
22299;DHT22;11317;51.072;17.036;2023-02-28T14:55:29;5.90;1.00
22299;DHT22;11317;51.072;17.036;2023-02-28T14:58:00;5.80;1.00
22299;DHT22;11317;51.072;17.036;2023-02-28T15:00:35;5.70;1.00
22299;DHT22;11317;51.072;17.036;2023-02-28T15:03:35;5.90;1.00
22299;DHT22;11317;51.072;17.036;2023-02-28T15:06:14;5.90;1.00
22299;DHT22;11317;51.072;17.036;2023-02-28T15:08:44;5.80;1.00
22299;DHT22;11317;51.072;17.036;2023-02-28T15:11:16;5.80;1.00
22299;DHT22;11317;51.072;17.036;2023-02-28T15:13:50;5.60;1.00
22299;DHT22;11317;51.072;17.036;2023-02-28T15:23:58;5.40;1.00
22299;DHT22;11317;51.072;17.036;2023-02-28T15:26:32;5.50;1.00
22299;DHT22;11317;51.072;17.036;2023-02-28T15:29:22;5.60;99.90
22299;DHT22;11317;51.072;17.036;2023-02-28T15:31:49;5.40;1.00
22299;DHT22;11317;51.072;17.036;2023-02-28T15:34:19;5.30;1.00
22299;DHT22;11317;51.072;17.036;2023-02-28T15:36:47;5.10;1.00
22299;DHT22;11317;51.072;17.036;2023-02-28T15:39:25;5.20;1.00
22299;DHT22;11317;51.072;17.036;2023-02-28T15:42:19;5.20;1.00
22299;DHT22;11317;51.072;17.036;2023-02-28T15:44:45;5.10;1.00
22299;DHT22;11317;51.072;17.036;2023-02-28T15:47:23;5.10;1.00
22299;DHT22;11317;51.072;17.036;2023-02-28T15:49:52;5.10;1.00
22299;DHT22;11317;51.072;17.036;2023-02-28T15:55:28;5.10;1.00
22299;DHT22;11317;51.072;17.036;2023-02-28T15:57:56;5.20;1.00
22299;DHT22;11317;51.072;17.036;2023-02-28T16:00:26;5.20;1.00
22299;DHT22;11317;51.072;17.036;2023-02-28T16:02:52;5.10;1.00
22299;DHT22;11317;51.072;17.036;2023-02-28T16:05:20;5.00;1.00
22299;DHT22;11317;51.072;17.036;2023-02-28T16:08:13;5.00;1.00
22299;DHT22;11317;51.072;17.036;2023-02-28T16:13:05;4.40;1.00
22299;DHT22;11317;51.072;17.036;2023-02-28T16:15:37;4.50;1.00
22299;DHT22;11317;51.072;17.036;2023-02-28T16:18:08;4.40;1.00
22299;DHT22;11317;51.072;17.036;2023-02-28T16:20:35;4.10;99.90
22299;DHT22;11317;51.072;17.036;2023-02-28T16:23:01;4.20;99.90
22299;DHT22;11317;51.072;17.036;2023-02-28T16:25:37;4.00;13.90
22299;DHT22;11317;51.072;17.036;2023-02-28T16:28:03;4.00;34.40
22299;DHT22;11317;51.072;17.036;2023-02-28T16:30:30;3.90;57.00
22299;DHT22;11317;51.072;17.036;2023-02-28T16:37:52;3.90;1.00
22299;DHT22;11317;51.072;17.036;2023-02-28T16:40:24;3.60;1.00
22299;DHT22;11317;51.072;17.036;2023-02-28T16:42:53;3.80;1.00
22299;DHT22;11317;51.072;17.036;2023-02-28T16:45:28;3.40;7.10
22299;DHT22;11317;51.072;17.036;2023-02-28T16:50:30;3.40;99.90
22299;DHT22;11317;51.072;17.036;2023-02-28T16:52:58;3.30;95.50
22299;DHT22;11317;51.072;17.036;2023-02-28T16:55:25;3.30;1.00
22299;DHT22;11317;51.072;17.036;2023-02-28T16:57:53;3.30;1.00
22299;DHT22;11317;51.072;17.036;2023-02-28T17:00:20;3.20;99.90
22299;DHT22;11317;51.072;17.036;2023-02-28T17:05:12;3.10;99.90
22299;DHT22;11317;51.072;17.036;2023-02-28T17:07:39;3.00;99.90
22299;DHT22;11317;51.072;17.036;2023-02-28T17:10:19;2.90;1.00
22299;DHT22;11317;51.072;17.036;2023-02-28T17:15:13;2.90;99.90
22299;DHT22;11317;51.072;17.036;2023-02-28T17:20:06;1.50;99.90
22299;DHT22;11317;51.072;17.036;2023-02-28T17:22:32;2.60;99.90
22299;DHT22;11317;51.072;17.036;2023-02-28T17:39:37;2.50;1.00
22299;DHT22;11317;51.072;17.036;2023-02-28T17:44:29;2.20;1.00
22299;DHT22;11317;51.072;17.036;2023-02-28T17:49:22;2.30;99.90
22299;DHT22;11317;51.072;17.036;2023-02-28T17:51:48;2.10;1.00
22299;DHT22;11317;51.072;17.036;2023-02-28T17:54:14;1.90;99.90
22299;DHT22;11317;51.072;17.036;2023-02-28T17:59:11;2.20;1.00
22299;DHT22;11317;51.072;17.036;2023-02-28T18:01:38;2.10;99.90
22299;DHT22;11317;51.072;17.036;2023-02-28T18:04:04;1.90;1.00
22299;DHT22;11317;51.072;17.036;2023-02-28T18:06:43;1.70;99.90
22299;DHT22;11317;51.072;17.036;2023-02-28T18:09:14;2.00;1.00
22299;DHT22;11317;51.072;17.036;2023-02-28T18:19:01;1.60;99.90
22299;DHT22;11317;51.072;17.036;2023-02-28T18:21:27;1.30;37.90
22299;DHT22;11317;51.072;17.036;2023-02-28T18:26:20;1.70;1.00
22299;DHT22;11317;51.072;17.036;2023-02-28T18:28:46;1.60;1.00
22299;DHT22;11317;51.072;17.036;2023-02-28T18:31:15;0.50;1.00
22299;DHT22;11317;51.072;17.036;2023-02-28T18:33:42;1.60;1.00
22299;DHT22;11317;51.072;17.036;2023-02-28T18:38:35;1.50;1.00
22299;DHT22;11317;51.072;17.036;2023-02-28T18:41:03;1.40;1.00
22299;DHT22;11317;51.072;17.036;2023-02-28T18:43:32;1.50;1.00
22299;DHT22;11317;51.072;17.036;2023-02-28T18:46:06;1.50;1.00
22299;DHT22;11317;51.072;17.036;2023-02-28T18:48:33;1.70;99.90
22299;DHT22;11317;51.072;17.036;2023-02-28T18:51:05;1.40;93.60
22299;DHT22;11317;51.072;17.036;2023-02-28T18:53:34;1.40;1.00
22299;DHT22;11317;51.072;17.036;2023-02-28T18:56:00;1.40;99.90
22299;DHT22;11317;51.072;17.036;2023-02-28T18:58:26;1.30;1.00
22299;DHT22;11317;51.072;17.036;2023-02-28T19:05:45;1.10;1.00
22299;DHT22;11317;51.072;17.036;2023-02-28T19:08:12;1.20;99.90
22299;DHT22;11317;51.072;17.036;2023-02-28T19:10:38;1.20;1.00
22299;DHT22;11317;51.072;17.036;2023-02-28T19:18:00;1.10;99.90
22299;DHT22;11317;51.072;17.036;2023-02-28T19:22:53;1.10;99.90
22299;DHT22;11317;51.072;17.036;2023-02-28T19:27:45;1.20;99.90
22299;DHT22;11317;51.072;17.036;2023-02-28T19:30:11;1.00;99.90
22299;DHT22;11317;51.072;17.036;2023-02-28T19:35:03;1.00;99.90
22299;DHT22;11317;51.072;17.036;2023-02-28T19:37:29;1.30;1.00
22299;DHT22;11317;51.072;17.036;2023-02-28T19:42:22;1.30;99.90
22299;DHT22;11317;51.072;17.036;2023-02-28T19:54:33;0.90;1.00
22299;DHT22;11317;51.072;17.036;2023-02-28T19:59:27;0.90;99.90
22299;DHT22;11317;51.072;17.036;2023-02-28T20:01:54;0.90;99.90
22299;DHT22;11317;51.072;17.036;2023-02-28T20:04:22;0.80;99.90
22299;DHT22;11317;51.072;17.036;2023-02-28T20:09:15;0.50;1.00
22299;DHT22;11317;51.072;17.036;2023-02-28T20:11:42;0.70;1.00
22299;DHT22;11317;51.072;17.036;2023-02-28T20:14:12;0.70;1.00
22299;DHT22;11317;51.072;17.036;2023-02-28T20:16:42;0.70;1.00
22299;DHT22;11317;51.072;17.036;2023-02-28T20:21:34;0.50;99.90
22299;DHT22;11317;51.072;17.036;2023-02-28T20:24:00;0.60;1.00
22299;DHT22;11317;51.072;17.036;2023-02-28T20:26:26;0.80;99.90
22299;DHT22;11317;51.072;17.036;2023-02-28T20:31:21;0.30;1.00
22299;DHT22;11317;51.072;17.036;2023-02-28T20:33:49;0.50;1.00
22299;DHT22;11317;51.072;17.036;2023-02-28T20:36:16;0.50;1.00
22299;DHT22;11317;51.072;17.036;2023-02-28T20:41:11;0.40;1.00
22299;DHT22;11317;51.072;17.036;2023-02-28T20:43:38;1.40;1.00
22299;DHT22;11317;51.072;17.036;2023-02-28T20:46:04;0.60;1.00
22299;DHT22;11317;51.072;17.036;2023-02-28T20:48:32;0.30;29.40
22299;DHT22;11317;51.072;17.036;2023-02-28T20:53:29;1.40;1.00
22299;DHT22;11317;51.072;17.036;2023-02-28T20:56:06;0.20;99.90
22299;DHT22;11317;51.072;17.036;2023-02-28T20:58:35;0.10;99.90
22299;DHT22;11317;51.072;17.036;2023-02-28T21:03:29;0.00;1.00
22299;DHT22;11317;51.072;17.036;2023-02-28T21:06:02;-0.10;1.00
22299;DHT22;11317;51.072;17.036;2023-02-28T21:08:28;-0.20;1.00
22299;DHT22;11317;51.072;17.036;2023-02-28T21:10:54;-0.10;1.00
22299;DHT22;11317;51.072;17.036;2023-02-28T21:23:06;-0.10;99.90
22299;DHT22;11317;51.072;17.036;2023-02-28T21:25:32;-0.20;99.90
22299;DHT22;11317;51.072;17.036;2023-02-28T21:27:58;-0.50;1.00
22299;DHT22;11317;51.072;17.036;2023-02-28T21:35:16;-0.60;99.90
22299;DHT22;11317;51.072;17.036;2023-02-28T21:37:42;-0.20;1.00
22299;DHT22;11317;51.072;17.036;2023-02-28T21:40:09;-0.50;99.90
22299;DHT22;11317;51.072;17.036;2023-02-28T21:47:28;-0.50;1.00
22299;DHT22;11317;51.072;17.036;2023-02-28T21:49:55;-0.40;1.00
22299;DHT22;11317;51.072;17.036;2023-02-28T21:52:21;-0.70;1.00
22299;DHT22;11317;51.072;17.036;2023-02-28T21:54:47;-0.70;1.00
22299;DHT22;11317;51.072;17.036;2023-02-28T21:57:14;-0.60;1.00
22299;DHT22;11317;51.072;17.036;2023-02-28T21:59:41;-0.80;1.00
22299;DHT22;11317;51.072;17.036;2023-02-28T22:02:09;-0.70;1.00
22299;DHT22;11317;51.072;17.036;2023-02-28T22:04:35;-0.70;1.00
22299;DHT22;11317;51.072;17.036;2023-02-28T22:07:02;-0.90;99.90
22299;DHT22;11317;51.072;17.036;2023-02-28T22:09:28;-1.40;59.30
22299;DHT22;11317;51.072;17.036;2023-02-28T22:11:55;-1.10;1.00
22299;DHT22;11317;51.072;17.036;2023-02-28T22:16:47;-1.20;99.90
22299;DHT22;11317;51.072;17.036;2023-02-28T22:24:07;-1.10;1.00
22299;DHT22;11317;51.072;17.036;2023-02-28T22:31:32;-1.10;1.00
22299;DHT22;11317;51.072;17.036;2023-02-28T22:34:04;-1.20;99.90
22299;DHT22;11317;51.072;17.036;2023-02-28T22:36:31;-1.10;1.00
22299;DHT22;11317;51.072;17.036;2023-02-28T22:38:58;-1.20;1.00
22299;DHT22;11317;51.072;17.036;2023-02-28T22:41:25;-0.90;1.00
22299;DHT22;11317;51.072;17.036;2023-02-28T22:43:53;-1.20;1.00
22299;DHT22;11317;51.072;17.036;2023-02-28T22:46:20;-1.20;1.00
22299;DHT22;11317;51.072;17.036;2023-02-28T22:51:19;-1.40;1.00
22299;DHT22;11317;51.072;17.036;2023-02-28T22:53:46;-1.40;99.90
22299;DHT22;11317;51.072;17.036;2023-02-28T22:56:14;-1.40;1.00
22299;DHT22;11317;51.072;17.036;2023-02-28T22:58:41;-1.80;1.00
22299;DHT22;11317;51.072;17.036;2023-02-28T23:01:12;-1.50;1.00
22299;DHT22;11317;51.072;17.036;2023-02-28T23:03:39;-1.50;1.00
22299;DHT22;11317;51.072;17.036;2023-02-28T23:06:19;-1.50;1.00
22299;DHT22;11317;51.072;17.036;2023-02-28T23:11:18;-1.40;99.90